sensor_id;sensor_type;location;lat;lon;timestamp;P1;durP1;ratioP1;P2;durP2;ratioP2
26269;SDS011;15937;50.612;6.656;2024-01-15T00:01:00;24.17;;;9.23;;
26269;SDS011;15937;50.612;6.656;2024-01-15T00:05:03;30.83;;;11.40;;
26269;SDS011;15937;50.612;6.656;2024-01-15T00:09:05;24.98;;;9.68;;
26269;SDS011;15937;50.612;6.656;2024-01-15T00:13:08;32.42;;;10.50;;
26269;SDS011;15937;50.612;6.656;2024-01-15T00:17:10;27.53;;;9.57;;
26269;SDS011;15937;50.612;6.656;2024-01-15T00:21:12;25.48;;;9.10;;
26269;SDS011;15937;50.612;6.656;2024-01-15T00:25:13;27.00;;;11.15;;
26269;SDS011;15937;50.612;6.656;2024-01-15T00:29:15;27.85;;;10.27;;
26269;SDS011;15937;50.612;6.656;2024-01-15T00:33:18;29.23;;;9.50;;
26269;SDS011;15937;50.612;6.656;2024-01-15T00:37:20;23.27;;;10.63;;
26269;SDS011;15937;50.612;6.656;2024-01-15T00:41:23;30.17;;;9.35;;
26269;SDS011;15937;50.612;6.656;2024-01-15T00:45:25;27.50;;;11.48;;
26269;SDS011;15937;50.612;6.656;2024-01-15T00:49:27;26.20;;;9.77;;
26269;SDS011;15937;50.612;6.656;2024-01-15T00:53:29;26.63;;;10.52;;
26269;SDS011;15937;50.612;6.656;2024-01-15T00:57:31;26.20;;;8.75;;
26269;SDS011;15937;50.612;6.656;2024-01-15T01:01:34;27.75;;;10.25;;
26269;SDS011;15937;50.612;6.656;2024-01-15T01:05:40;33.42;;;10.55;;
26269;SDS011;15937;50.612;6.656;2024-01-15T01:09:42;25.55;;;8.85;;
26269;SDS011;15937;50.612;6.656;2024-01-15T01:13:45;27.98;;;10.48;;
26269;SDS011;15937;50.612;6.656;2024-01-15T01:17:47;37.42;;;9.52;;
26269;SDS011;15937;50.612;6.656;2024-01-15T01:26:07;24.50;;;8.82;;
26269;SDS011;15937;50.612;6.656;2024-01-15T01:30:09;27.58;;;9.30;;
26269;SDS011;15937;50.612;6.656;2024-01-15T01:34:15;25.23;;;8.93;;
26269;SDS011;15937;50.612;6.656;2024-01-15T01:38:18;26.35;;;8.68;;
26269;SDS011;15937;50.612;6.656;2024-01-15T01:42:20;30.00;;;7.93;;
26269;SDS011;15937;50.612;6.656;2024-01-15T01:46:22;26.58;;;9.98;;
26269;SDS011;15937;50.612;6.656;2024-01-15T01:50:25;21.58;;;8.70;;
26269;SDS011;15937;50.612;6.656;2024-01-15T01:54:29;28.77;;;9.77;;
26269;SDS011;15937;50.612;6.656;2024-01-15T01:58:33;23.38;;;8.32;;
26269;SDS011;15937;50.612;6.656;2024-01-15T02:02:35;30.67;;;9.33;;
26269;SDS011;15937;50.612;6.656;2024-01-15T02:06:37;26.45;;;10.48;;
26269;SDS011;15937;50.612;6.656;2024-01-15T02:10:39;26.38;;;10.40;;
26269;SDS011;15937;50.612;6.656;2024-01-15T02:14:41;20.10;;;9.75;;
26269;SDS011;15937;50.612;6.656;2024-01-15T02:18:43;29.58;;;9.52;;
26269;SDS011;15937;50.612;6.656;2024-01-15T02:22:47;27.02;;;9.55;;
26269;SDS011;15937;50.612;6.656;2024-01-15T02:26:49;26.05;;;9.20;;
26269;SDS011;15937;50.612;6.656;2024-01-15T02:34:54;24.83;;;10.02;;
26269;SDS011;15937;50.612;6.656;2024-01-15T02:38:57;22.98;;;8.82;;
26269;SDS011;15937;50.612;6.656;2024-01-15T02:42:59;24.90;;;9.37;;
26269;SDS011;15937;50.612;6.656;2024-01-15T02:47:02;24.40;;;9.23;;
26269;SDS011;15937;50.612;6.656;2024-01-15T02:51:04;16.10;;;8.00;;
26269;SDS011;15937;50.612;6.656;2024-01-15T02:55:06;21.73;;;8.07;;
26269;SDS011;15937;50.612;6.656;2024-01-15T02:59:08;25.60;;;10.03;;
26269;SDS011;15937;50.612;6.656;2024-01-15T03:03:10;18.37;;;7.67;;
26269;SDS011;15937;50.612;6.656;2024-01-15T03:07:13;19.93;;;8.60;;
26269;SDS011;15937;50.612;6.656;2024-01-15T03:11:14;22.27;;;8.65;;
26269;SDS011;15937;50.612;6.656;2024-01-15T03:15:17;20.67;;;8.70;;
26269;SDS011;15937;50.612;6.656;2024-01-15T03:19:22;21.08;;;8.05;;
26269;SDS011;15937;50.612;6.656;2024-01-15T03:23:24;23.75;;;9.00;;
26269;SDS011;15937;50.612;6.656;2024-01-15T03:27:26;21.10;;;8.75;;
26269;SDS011;15937;50.612;6.656;2024-01-15T03:31:28;16.83;;;8.17;;
26269;SDS011;15937;50.612;6.656;2024-01-15T03:35:30;20.08;;;8.40;;
26269;SDS011;15937;50.612;6.656;2024-01-15T03:39:32;24.55;;;10.70;;
26269;SDS011;15937;50.612;6.656;2024-01-15T03:43:34;19.70;;;8.10;;
26269;SDS011;15937;50.612;6.656;2024-01-15T03:47:36;20.63;;;8.27;;
26269;SDS011;15937;50.612;6.656;2024-01-15T03:51:38;19.25;;;8.13;;
26269;SDS011;15937;50.612;6.656;2024-01-15T03:55:40;20.70;;;8.77;;
26269;SDS011;15937;50.612;6.656;2024-01-15T03:59:43;20.55;;;7.88;;
26269;SDS011;15937;50.612;6.656;2024-01-15T04:03:48;21.85;;;9.07;;
26269;SDS011;15937;50.612;6.656;2024-01-15T04:07:50;18.10;;;8.07;;
26269;SDS011;15937;50.612;6.656;2024-01-15T04:11:52;18.17;;;7.57;;
26269;SDS011;15937;50.612;6.656;2024-01-15T04:15:54;15.07;;;6.80;;
26269;SDS011;15937;50.612;6.656;2024-01-15T04:19:57;13.52;;;6.10;;
26269;SDS011;15937;50.612;6.656;2024-01-15T04:23:59;16.67;;;6.90;;
26269;SDS011;15937;50.612;6.656;2024-01-15T04:28:01;17.55;;;7.88;;
26269;SDS011;15937;50.612;6.656;2024-01-15T04:32:03;17.42;;;7.03;;
26269;SDS011;15937;50.612;6.656;2024-01-15T04:36:05;17.87;;;8.40;;
26269;SDS011;15937;50.612;6.656;2024-01-15T04:40:08;16.95;;;8.15;;
26269;SDS011;15937;50.612;6.656;2024-01-15T04:44:13;18.35;;;7.90;;
26269;SDS011;15937;50.612;6.656;2024-01-15T04:48:15;16.30;;;7.95;;
26269;SDS011;15937;50.612;6.656;2024-01-15T04:52:17;20.05;;;7.57;;
26269;SDS011;15937;50.612;6.656;2024-01-15T04:56:20;16.67;;;6.67;;
26269;SDS011;15937;50.612;6.656;2024-01-15T05:00:22;15.52;;;7.10;;
26269;SDS011;15937;50.612;6.656;2024-01-15T05:04:24;15.75;;;8.02;;
26269;SDS011;15937;50.612;6.656;2024-01-15T05:08:27;16.77;;;8.53;;
26269;SDS011;15937;50.612;6.656;2024-01-15T05:12:29;14.05;;;7.03;;
26269;SDS011;15937;50.612;6.656;2024-01-15T05:16:31;16.05;;;6.57;;
26269;SDS011;15937;50.612;6.656;2024-01-15T05:20:33;22.98;;;7.35;;
26269;SDS011;15937;50.612;6.656;2024-01-15T05:24:36;17.60;;;7.97;;
26269;SDS011;15937;50.612;6.656;2024-01-15T05:28:38;16.50;;;7.57;;
26269;SDS011;15937;50.612;6.656;2024-01-15T05:32:42;18.48;;;6.55;;
26269;SDS011;15937;50.612;6.656;2024-01-15T05:36:44;18.43;;;6.80;;
26269;SDS011;15937;50.612;6.656;2024-01-15T05:40:49;19.75;;;8.27;;
26269;SDS011;15937;50.612;6.656;2024-01-15T05:44:51;20.10;;;7.68;;
26269;SDS011;15937;50.612;6.656;2024-01-15T05:48:53;16.45;;;7.60;;
26269;SDS011;15937;50.612;6.656;2024-01-15T05:52:55;24.27;;;9.07;;
26269;SDS011;15937;50.612;6.656;2024-01-15T05:56:57;20.83;;;7.38;;
26269;SDS011;15937;50.612;6.656;2024-01-15T06:01:02;23.88;;;7.25;;
26269;SDS011;15937;50.612;6.656;2024-01-15T06:09:08;23.55;;;7.32;;
26269;SDS011;15937;50.612;6.656;2024-01-15T06:13:10;39.95;;;7.93;;
26269;SDS011;15937;50.612;6.656;2024-01-15T06:17:13;15.43;;;6.70;;
26269;SDS011;15937;50.612;6.656;2024-01-15T06:21:15;16.92;;;7.70;;
26269;SDS011;15937;50.612;6.656;2024-01-15T06:25:17;16.58;;;7.57;;
26269;SDS011;15937;50.612;6.656;2024-01-15T06:29:19;18.13;;;6.78;;
26269;SDS011;15937;50.612;6.656;2024-01-15T06:37:30;19.15;;;6.50;;
26269;SDS011;15937;50.612;6.656;2024-01-15T06:41:33;19.60;;;6.15;;
26269;SDS011;15937;50.612;6.656;2024-01-15T06:45:38;26.05;;;6.53;;
26269;SDS011;15937;50.612;6.656;2024-01-15T06:49:39;12.85;;;6.47;;
26269;SDS011;15937;50.612;6.656;2024-01-15T06:53:41;27.73;;;6.95;;
26269;SDS011;15937;50.612;6.656;2024-01-15T06:57:43;14.95;;;6.43;;
26269;SDS011;15937;50.612;6.656;2024-01-15T07:01:45;18.80;;;7.03;;
26269;SDS011;15937;50.612;6.656;2024-01-15T07:05:47;26.07;;;6.80;;
26269;SDS011;15937;50.612;6.656;2024-01-15T07:09:49;18.45;;;7.20;;
26269;SDS011;15937;50.612;6.656;2024-01-15T07:13:53;15.20;;;6.75;;
26269;SDS011;15937;50.612;6.656;2024-01-15T07:22:06;10.13;;;5.53;;
26269;SDS011;15937;50.612;6.656;2024-01-15T07:26:10;15.98;;;6.03;;
26269;SDS011;15937;50.612;6.656;2024-01-15T07:30:12;18.35;;;6.53;;
26269;SDS011;15937;50.612;6.656;2024-01-15T07:34:15;15.30;;;7.43;;
26269;SDS011;15937;50.612;6.656;2024-01-15T07:38:18;18.02;;;7.30;;
26269;SDS011;15937;50.612;6.656;2024-01-15T07:42:20;16.73;;;6.88;;
26269;SDS011;15937;50.612;6.656;2024-01-15T07:46:22;17.88;;;6.78;;
26269;SDS011;15937;50.612;6.656;2024-01-15T07:50:24;16.67;;;7.25;;
26269;SDS011;15937;50.612;6.656;2024-01-15T07:54:26;18.52;;;5.82;;
26269;SDS011;15937;50.612;6.656;2024-01-15T07:58:28;15.15;;;7.45;;
26269;SDS011;15937;50.612;6.656;2024-01-15T08:02:30;17.73;;;7.82;;
26269;SDS011;15937;50.612;6.656;2024-01-15T08:06:37;17.88;;;6.65;;
26269;SDS011;15937;50.612;6.656;2024-01-15T08:10:40;20.25;;;8.07;;
26269;SDS011;15937;50.612;6.656;2024-01-15T08:18:51;14.85;;;7.53;;
26269;SDS011;15937;50.612;6.656;2024-01-15T08:22:53;21.13;;;7.57;;
26269;SDS011;15937;50.612;6.656;2024-01-15T08:26:57;17.48;;;7.90;;
26269;SDS011;15937;50.612;6.656;2024-01-15T08:31:01;20.73;;;7.25;;
26269;SDS011;15937;50.612;6.656;2024-01-15T08:35:04;11.57;;;5.72;;
26269;SDS011;15937;50.612;6.656;2024-01-15T08:39:06;15.97;;;7.20;;
26269;SDS011;15937;50.612;6.656;2024-01-15T08:43:10;18.85;;;5.95;;
26269;SDS011;15937;50.612;6.656;2024-01-15T08:47:12;12.40;;;4.88;;
26269;SDS011;15937;50.612;6.656;2024-01-15T08:51:14;18.20;;;6.40;;
26269;SDS011;15937;50.612;6.656;2024-01-15T08:55:16;14.75;;;6.18;;
26269;SDS011;15937;50.612;6.656;2024-01-15T08:59:18;17.77;;;6.03;;
26269;SDS011;15937;50.612;6.656;2024-01-15T09:03:25;17.15;;;5.03;;
26269;SDS011;15937;50.612;6.656;2024-01-15T09:07:28;14.07;;;6.20;;
26269;SDS011;15937;50.612;6.656;2024-01-15T09:11:30;12.23;;;5.80;;
26269;SDS011;15937;50.612;6.656;2024-01-15T09:15:33;12.20;;;5.00;;
26269;SDS011;15937;50.612;6.656;2024-01-15T09:19:35;13.90;;;5.90;;
26269;SDS011;15937;50.612;6.656;2024-01-15T09:23:37;11.88;;;6.05;;
26269;SDS011;15937;50.612;6.656;2024-01-15T09:27:39;19.10;;;5.50;;
26269;SDS011;15937;50.612;6.656;2024-01-15T09:31:41;12.30;;;5.27;;
26269;SDS011;15937;50.612;6.656;2024-01-15T09:35:43;19.17;;;4.85;;
26269;SDS011;15937;50.612;6.656;2024-01-15T09:39:45;11.25;;;5.38;;
26269;SDS011;15937;50.612;6.656;2024-01-15T09:43:50;10.27;;;5.20;;
26269;SDS011;15937;50.612;6.656;2024-01-15T09:47:53;18.50;;;5.22;;
26269;SDS011;15937;50.612;6.656;2024-01-15T09:51:56;17.53;;;5.33;;
26269;SDS011;15937;50.612;6.656;2024-01-15T09:56:11;9.90;;;5.63;;
26269;SDS011;15937;50.612;6.656;2024-01-15T10:00:14;17.05;;;5.60;;
26269;SDS011;15937;50.612;6.656;2024-01-15T10:04:19;14.60;;;6.15;;
26269;SDS011;15937;50.612;6.656;2024-01-15T10:08:21;22.23;;;7.43;;
26269;SDS011;15937;50.612;6.656;2024-01-15T10:12:25;15.20;;;5.93;;
26269;SDS011;15937;50.612;6.656;2024-01-15T10:16:29;12.40;;;6.13;;
26269;SDS011;15937;50.612;6.656;2024-01-15T10:20:32;10.85;;;6.07;;
26269;SDS011;15937;50.612;6.656;2024-01-15T10:24:34;13.68;;;6.22;;
26269;SDS011;15937;50.612;6.656;2024-01-15T10:28:37;13.50;;;5.95;;
26269;SDS011;15937;50.612;6.656;2024-01-15T10:32:39;7.82;;;4.72;;
26269;SDS011;15937;50.612;6.656;2024-01-15T10:36:44;13.35;;;5.93;;
26269;SDS011;15937;50.612;6.656;2024-01-15T10:40:52;13.75;;;6.43;;
26269;SDS011;15937;50.612;6.656;2024-01-15T10:44:55;9.93;;;5.28;;
26269;SDS011;15937;50.612;6.656;2024-01-15T10:48:57;9.88;;;5.65;;
26269;SDS011;15937;50.612;6.656;2024-01-15T10:52:59;10.80;;;5.10;;
26269;SDS011;15937;50.612;6.656;2024-01-15T10:57:02;8.98;;;4.35;;
26269;SDS011;15937;50.612;6.656;2024-01-15T11:01:04;6.90;;;5.13;;
26269;SDS011;15937;50.612;6.656;2024-01-15T11:05:07;8.80;;;4.80;;
26269;SDS011;15937;50.612;6.656;2024-01-15T11:09:09;7.87;;;4.87;;
26269;SDS011;15937;50.612;6.656;2024-01-15T11:13:15;14.95;;;6.25;;
26269;SDS011;15937;50.612;6.656;2024-01-15T11:18:00;12.57;;;4.75;;
26269;SDS011;15937;50.612;6.656;2024-01-15T11:22:04;11.30;;;4.82;;
26269;SDS011;15937;50.612;6.656;2024-01-15T11:30:33;9.90;;;4.40;;
26269;SDS011;15937;50.612;6.656;2024-01-15T11:38:51;11.88;;;4.32;;
26269;SDS011;15937;50.612;6.656;2024-01-15T11:42:53;11.80;;;4.25;;
26269;SDS011;15937;50.612;6.656;2024-01-15T11:46:59;13.20;;;4.37;;
26269;SDS011;15937;50.612;6.656;2024-01-15T11:51:06;14.13;;;3.53;;
26269;SDS011;15937;50.612;6.656;2024-01-15T11:59:38;15.10;;;4.13;;
26269;SDS011;15937;50.612;6.656;2024-01-15T12:03:40;17.02;;;5.32;;
26269;SDS011;15937;50.612;6.656;2024-01-15T12:07:46;15.70;;;4.90;;
26269;SDS011;15937;50.612;6.656;2024-01-15T12:11:54;12.57;;;3.70;;
26269;SDS011;15937;50.612;6.656;2024-01-15T12:16:07;8.68;;;3.47;;
26269;SDS011;15937;50.612;6.656;2024-01-15T12:20:09;17.23;;;4.15;;
26269;SDS011;15937;50.612;6.656;2024-01-15T12:28:17;14.10;;;3.53;;
26269;SDS011;15937;50.612;6.656;2024-01-15T12:32:20;10.65;;;3.72;;
26269;SDS011;15937;50.612;6.656;2024-01-15T12:36:23;17.95;;;4.20;;
26269;SDS011;15937;50.612;6.656;2024-01-15T12:40:25;11.02;;;3.88;;
26269;SDS011;15937;50.612;6.656;2024-01-15T12:44:28;6.80;;;3.22;;
26269;SDS011;15937;50.612;6.656;2024-01-15T12:48:30;10.88;;;2.60;;
26269;SDS011;15937;50.612;6.656;2024-01-15T12:52:34;9.25;;;3.47;;
26269;SDS011;15937;50.612;6.656;2024-01-15T12:56:39;8.93;;;3.47;;
26269;SDS011;15937;50.612;6.656;2024-01-15T13:00:43;11.73;;;2.90;;
26269;SDS011;15937;50.612;6.656;2024-01-15T13:04:45;10.60;;;3.30;;
26269;SDS011;15937;50.612;6.656;2024-01-15T13:08:47;7.85;;;2.45;;
26269;SDS011;15937;50.612;6.656;2024-01-15T13:12:50;16.45;;;3.47;;
26269;SDS011;15937;50.612;6.656;2024-01-15T13:16:52;9.20;;;2.87;;
26269;SDS011;15937;50.612;6.656;2024-01-15T13:20:55;13.07;;;4.80;;
26269;SDS011;15937;50.612;6.656;2024-01-15T13:24:57;9.83;;;2.57;;
26269;SDS011;15937;50.612;6.656;2024-01-15T13:29:00;6.30;;;2.50;;
26269;SDS011;15937;50.612;6.656;2024-01-15T13:33:02;12.02;;;3.20;;
26269;SDS011;15937;50.612;6.656;2024-01-15T13:37:06;20.10;;;3.17;;
26269;SDS011;15937;50.612;6.656;2024-01-15T13:41:11;7.70;;;2.10;;
26269;SDS011;15937;50.612;6.656;2024-01-15T13:45:13;17.33;;;4.03;;
26269;SDS011;15937;50.612;6.656;2024-01-15T13:49:19;14.65;;;3.47;;
26269;SDS011;15937;50.612;6.656;2024-01-15T13:53:22;5.88;;;2.30;;
26269;SDS011;15937;50.612;6.656;2024-01-15T13:57:24;11.77;;;3.63;;
26269;SDS011;15937;50.612;6.656;2024-01-15T14:01:27;8.37;;;3.07;;
26269;SDS011;15937;50.612;6.656;2024-01-15T14:09:31;8.45;;;3.10;;
26269;SDS011;15937;50.612;6.656;2024-01-15T14:13:34;8.33;;;2.97;;
26269;SDS011;15937;50.612;6.656;2024-01-15T14:17:37;7.70;;;2.83;;
26269;SDS011;15937;50.612;6.656;2024-01-15T14:25:41;3.70;;;1.92;;
26269;SDS011;15937;50.612;6.656;2024-01-15T14:29:43;8.07;;;3.30;;
26269;SDS011;15937;50.612;6.656;2024-01-15T14:33:48;7.53;;;3.08;;
26269;SDS011;15937;50.612;6.656;2024-01-15T14:37:50;6.07;;;1.90;;
26269;SDS011;15937;50.612;6.656;2024-01-15T14:41:52;5.40;;;2.30;;
26269;SDS011;15937;50.612;6.656;2024-01-15T14:45:54;5.70;;;2.58;;
26269;SDS011;15937;50.612;6.656;2024-01-15T14:49:56;4.95;;;2.05;;
26269;SDS011;15937;50.612;6.656;2024-01-15T14:53:58;4.13;;;2.75;;
26269;SDS011;15937;50.612;6.656;2024-01-15T14:58:02;8.60;;;2.53;;
26269;SDS011;15937;50.612;6.656;2024-01-15T15:02:05;4.22;;;2.13;;
26269;SDS011;15937;50.612;6.656;2024-01-15T15:06:11;5.15;;;2.53;;
26269;SDS011;15937;50.612;6.656;2024-01-15T15:10:14;4.10;;;1.92;;
26269;SDS011;15937;50.612;6.656;2024-01-15T15:14:16;5.53;;;3.10;;
26269;SDS011;15937;50.612;6.656;2024-01-15T15:18:18;4.77;;;2.80;;
26269;SDS011;15937;50.612;6.656;2024-01-15T15:22:20;2.87;;;1.90;;
26269;SDS011;15937;50.612;6.656;2024-01-15T15:26:24;3.58;;;2.40;;
26269;SDS011;15937;50.612;6.656;2024-01-15T15:30:26;3.53;;;2.22;;
26269;SDS011;15937;50.612;6.656;2024-01-15T15:34:28;3.97;;;2.08;;
26269;SDS011;15937;50.612;6.656;2024-01-15T15:38:31;9.75;;;3.47;;
26269;SDS011;15937;50.612;6.656;2024-01-15T15:42:33;7.30;;;3.05;;
26269;SDS011;15937;50.612;6.656;2024-01-15T15:46:41;4.45;;;2.00;;
26269;SDS011;15937;50.612;6.656;2024-01-15T15:50:42;4.90;;;1.92;;
26269;SDS011;15937;50.612;6.656;2024-01-15T15:54:44;4.38;;;2.45;;
26269;SDS011;15937;50.612;6.656;2024-01-15T15:58:49;4.68;;;2.75;;
26269;SDS011;15937;50.612;6.656;2024-01-15T16:02:51;1.50;;;1.40;;
26269;SDS011;15937;50.612;6.656;2024-01-15T16:06:53;4.60;;;2.38;;
26269;SDS011;15937;50.612;6.656;2024-01-15T16:10:55;6.60;;;2.53;;
26269;SDS011;15937;50.612;6.656;2024-01-15T16:14:59;9.10;;;4.23;;
26269;SDS011;15937;50.612;6.656;2024-01-15T16:19:02;5.38;;;2.55;;
26269;SDS011;15937;50.612;6.656;2024-01-15T16:23:24;3.58;;;2.28;;
26269;SDS011;15937;50.612;6.656;2024-01-15T16:27:46;10.88;;;2.90;;
26269;SDS011;15937;50.612;6.656;2024-01-15T16:31:48;4.70;;;3.00;;
26269;SDS011;15937;50.612;6.656;2024-01-15T16:35:50;4.53;;;2.27;;
26269;SDS011;15937;50.612;6.656;2024-01-15T16:39:52;11.70;;;2.67;;
26269;SDS011;15937;50.612;6.656;2024-01-15T16:43:54;9.63;;;2.30;;
26269;SDS011;15937;50.612;6.656;2024-01-15T16:47:56;13.75;;;2.88;;
26269;SDS011;15937;50.612;6.656;2024-01-15T16:51:58;6.87;;;2.90;;
26269;SDS011;15937;50.612;6.656;2024-01-15T16:56:04;8.55;;;2.97;;
26269;SDS011;15937;50.612;6.656;2024-01-15T17:00:07;11.80;;;2.65;;
26269;SDS011;15937;50.612;6.656;2024-01-15T17:08:12;6.78;;;3.05;;
26269;SDS011;15937;50.612;6.656;2024-01-15T17:12:14;6.05;;;2.97;;
26269;SDS011;15937;50.612;6.656;2024-01-15T17:16:16;3.67;;;2.70;;
26269;SDS011;15937;50.612;6.656;2024-01-15T17:20:19;9.82;;;3.40;;
26269;SDS011;15937;50.612;6.656;2024-01-15T17:24:21;8.40;;;3.22;;
26269;SDS011;15937;50.612;6.656;2024-01-15T17:28:23;6.18;;;2.90;;
26269;SDS011;15937;50.612;6.656;2024-01-15T17:32:26;15.57;;;3.63;;
26269;SDS011;15937;50.612;6.656;2024-01-15T17:36:30;11.85;;;3.97;;
26269;SDS011;15937;50.612;6.656;2024-01-15T17:40:32;11.30;;;2.80;;
26269;SDS011;15937;50.612;6.656;2024-01-15T17:44:36;9.18;;;3.13;;
26269;SDS011;15937;50.612;6.656;2024-01-15T17:48:38;4.53;;;3.30;;
26269;SDS011;15937;50.612;6.656;2024-01-15T17:52:40;13.30;;;3.43;;
26269;SDS011;15937;50.612;6.656;2024-01-15T17:56:42;12.25;;;3.45;;
26269;SDS011;15937;50.612;6.656;2024-01-15T18:00:44;13.53;;;3.57;;
26269;SDS011;15937;50.612;6.656;2024-01-15T18:04:49;9.55;;;3.97;;
26269;SDS011;15937;50.612;6.656;2024-01-15T18:08:50;12.13;;;3.55;;
26269;SDS011;15937;50.612;6.656;2024-01-15T18:12:53;6.90;;;3.40;;
26269;SDS011;15937;50.612;6.656;2024-01-15T18:16:55;10.27;;;4.03;;
26269;SDS011;15937;50.612;6.656;2024-01-15T18:20:58;14.48;;;4.10;;
26269;SDS011;15937;50.612;6.656;2024-01-15T18:25:00;11.48;;;4.50;;
26269;SDS011;15937;50.612;6.656;2024-01-15T18:29:02;9.23;;;2.92;;
26269;SDS011;15937;50.612;6.656;2024-01-15T18:33:04;11.57;;;3.20;;
26269;SDS011;15937;50.612;6.656;2024-01-15T18:37:07;14.40;;;3.15;;
26269;SDS011;15937;50.612;6.656;2024-01-15T18:41:19;10.43;;;3.13;;
26269;SDS011;15937;50.612;6.656;2024-01-15T18:45:21;16.95;;;4.18;;
26269;SDS011;15937;50.612;6.656;2024-01-15T18:49:23;19.00;;;4.05;;
26269;SDS011;15937;50.612;6.656;2024-01-15T18:53:25;7.18;;;3.22;;
26269;SDS011;15937;50.612;6.656;2024-01-15T18:57:29;17.20;;;4.40;;
26269;SDS011;15937;50.612;6.656;2024-01-15T19:01:32;13.13;;;3.70;;
26269;SDS011;15937;50.612;6.656;2024-01-15T19:05:34;8.25;;;3.63;;
26269;SDS011;15937;50.612;6.656;2024-01-15T19:09:39;17.02;;;4.47;;
26269;SDS011;15937;50.612;6.656;2024-01-15T19:13:41;11.80;;;4.28;;
26269;SDS011;15937;50.612;6.656;2024-01-15T19:17:43;23.58;;;6.05;;
26269;SDS011;15937;50.612;6.656;2024-01-15T19:21:49;14.32;;;4.35;;
26269;SDS011;15937;50.612;6.656;2024-01-15T19:25:51;14.43;;;4.83;;
26269;SDS011;15937;50.612;6.656;2024-01-15T19:29:56;12.15;;;4.10;;
26269;SDS011;15937;50.612;6.656;2024-01-15T19:33:58;15.85;;;5.53;;
26269;SDS011;15937;50.612;6.656;2024-01-15T19:38:03;15.40;;;4.45;;
26269;SDS011;15937;50.612;6.656;2024-01-15T19:42:06;13.23;;;5.20;;
26269;SDS011;15937;50.612;6.656;2024-01-15T19:46:08;16.55;;;5.43;;
26269;SDS011;15937;50.612;6.656;2024-01-15T19:50:09;10.90;;;4.63;;
26269;SDS011;15937;50.612;6.656;2024-01-15T19:54:12;15.15;;;4.50;;
26269;SDS011;15937;50.612;6.656;2024-01-15T19:58:14;16.25;;;4.45;;
26269;SDS011;15937;50.612;6.656;2024-01-15T20:02:16;12.63;;;4.68;;
26269;SDS011;15937;50.612;6.656;2024-01-15T20:06:18;10.67;;;3.87;;
26269;SDS011;15937;50.612;6.656;2024-01-15T20:10:20;19.97;;;5.07;;
26269;SDS011;15937;50.612;6.656;2024-01-15T20:14:22;15.40;;;4.97;;
26269;SDS011;15937;50.612;6.656;2024-01-15T20:18:26;18.70;;;3.83;;
26269;SDS011;15937;50.612;6.656;2024-01-15T20:22:29;18.95;;;5.00;;
26269;SDS011;15937;50.612;6.656;2024-01-15T20:26:35;9.55;;;3.70;;
26269;SDS011;15937;50.612;6.656;2024-01-15T20:30:37;15.87;;;4.90;;
26269;SDS011;15937;50.612;6.656;2024-01-15T20:34:39;7.05;;;3.80;;
26269;SDS011;15937;50.612;6.656;2024-01-15T20:38:42;12.93;;;4.20;;
26269;SDS011;15937;50.612;6.656;2024-01-15T20:42:44;15.25;;;4.72;;
26269;SDS011;15937;50.612;6.656;2024-01-15T20:46:46;8.65;;;3.55;;
26269;SDS011;15937;50.612;6.656;2024-01-15T20:50:48;10.88;;;4.38;;
26269;SDS011;15937;50.612;6.656;2024-01-15T20:54:51;11.00;;;4.20;;
26269;SDS011;15937;50.612;6.656;2024-01-15T20:58:53;15.37;;;5.53;;
26269;SDS011;15937;50.612;6.656;2024-01-15T21:02:55;14.50;;;4.77;;
26269;SDS011;15937;50.612;6.656;2024-01-15T21:06:57;12.13;;;4.60;;
26269;SDS011;15937;50.612;6.656;2024-01-15T21:11:08;15.10;;;4.20;;
26269;SDS011;15937;50.612;6.656;2024-01-15T21:15:11;13.70;;;5.00;;
26269;SDS011;15937;50.612;6.656;2024-01-15T21:19:13;9.90;;;4.70;;
26269;SDS011;15937;50.612;6.656;2024-01-15T21:23:17;7.00;;;4.18;;
26269;SDS011;15937;50.612;6.656;2024-01-15T21:27:22;17.27;;;3.60;;
26269;SDS011;15937;50.612;6.656;2024-01-15T21:31:24;9.93;;;3.70;;
26269;SDS011;15937;50.612;6.656;2024-01-15T21:35:26;2.65;;;2.42;;
26269;SDS011;15937;50.612;6.656;2024-01-15T21:39:28;4.67;;;3.80;;
26269;SDS011;15937;50.612;6.656;2024-01-15T21:43:31;4.72;;;3.00;;
26269;SDS011;15937;50.612;6.656;2024-01-15T21:47:34;5.43;;;3.45;;
26269;SDS011;15937;50.612;6.656;2024-01-15T21:51:38;10.88;;;3.55;;
26269;SDS011;15937;50.612;6.656;2024-01-15T21:55:40;7.88;;;4.38;;
26269;SDS011;15937;50.612;6.656;2024-01-15T21:59:41;9.27;;;3.90;;
26269;SDS011;15937;50.612;6.656;2024-01-15T22:03:44;7.93;;;3.80;;
26269;SDS011;15937;50.612;6.656;2024-01-15T22:07:47;11.95;;;4.65;;
26269;SDS011;15937;50.612;6.656;2024-01-15T22:11:50;7.60;;;4.13;;
26269;SDS011;15937;50.612;6.656;2024-01-15T22:15:52;10.10;;;5.15;;
26269;SDS011;15937;50.612;6.656;2024-01-15T22:19:54;16.63;;;4.35;;
26269;SDS011;15937;50.612;6.656;2024-01-15T22:23:59;15.48;;;5.57;;
26269;SDS011;15937;50.612;6.656;2024-01-15T22:28:01;9.07;;;4.07;;
26269;SDS011;15937;50.612;6.656;2024-01-15T22:32:05;8.88;;;4.22;;
26269;SDS011;15937;50.612;6.656;2024-01-15T22:36:07;19.67;;;5.15;;
26269;SDS011;15937;50.612;6.656;2024-01-15T22:40:10;16.97;;;4.67;;
26269;SDS011;15937;50.612;6.656;2024-01-15T22:44:14;10.68;;;3.63;;
26269;SDS011;15937;50.612;6.656;2024-01-15T22:48:17;13.05;;;4.65;;
26269;SDS011;15937;50.612;6.656;2024-01-15T22:52:21;15.73;;;4.13;;
26269;SDS011;15937;50.612;6.656;2024-01-15T22:56:23;13.65;;;4.93;;
26269;SDS011;15937;50.612;6.656;2024-01-15T23:00:27;17.37;;;5.07;;
26269;SDS011;15937;50.612;6.656;2024-01-15T23:04:30;15.23;;;4.68;;
26269;SDS011;15937;50.612;6.656;2024-01-15T23:08:32;12.30;;;4.93;;
26269;SDS011;15937;50.612;6.656;2024-01-15T23:12:34;11.02;;;4.38;;
26269;SDS011;15937;50.612;6.656;2024-01-15T23:16:43;17.02;;;4.82;;
26269;SDS011;15937;50.612;6.656;2024-01-15T23:24:47;11.85;;;4.57;;
26269;SDS011;15937;50.612;6.656;2024-01-15T23:28:49;11.35;;;4.88;;
26269;SDS011;15937;50.612;6.656;2024-01-15T23:32:51;13.38;;;4.78;;
26269;SDS011;15937;50.612;6.656;2024-01-15T23:36:53;12.93;;;4.80;;
26269;SDS011;15937;50.612;6.656;2024-01-15T23:40:55;13.02;;;5.65;;
26269;SDS011;15937;50.612;6.656;2024-01-15T23:44:57;12.60;;;4.88;;
26269;SDS011;15937;50.612;6.656;2024-01-15T23:49:02;22.55;;;4.63;;
26269;SDS011;15937;50.612;6.656;2024-01-15T23:53:04;12.73;;;3.92;;
26269;SDS011;15937;50.612;6.656;2024-01-15T23:57:06;20.20;;;5.23;;
